DAL405 KSFO-KJFK
Flight info
| Callsign | DAL405 |
|---|---|
| Flight time | N/A |
| Altitude | 35000 |
| Route | TRUKN2 ORRCA Q120 GALLI BAM J94 OCS KATES DBQ KG75M DAFLU J70 JHW Q476 WLKES PUCKY1 |
| Aircraft | A35K/H-SDE2E3GHIJ3J4J5LM1ORWXY/LB1D1 |
Departure
| Time | 2026-05-05 15:29 |
|---|---|
| Airport | San Francisco International Airport (KSFO) |
Arrival
| Time | N/A |
|---|---|
| Airport | John F. Kennedy International Airport (KJFK) |
| Time | Latitude | Longitude | Altitude | Speed | Heading |
|---|---|---|---|---|---|
| 2026-05-05 14:55 | 37.61417 | -122.38231 | 28 ft | 0 kts | 354° |
| 2026-05-05 15:20 | 37.61417 | -122.38230 | 28 ft | 1 kts | 354° |
| 2026-05-05 15:20 | 37.61392 | -122.38228 | 28 ft | 4 kts | 357° |
| 2026-05-05 15:20 | 37.61367 | -122.38231 | 27 ft | 4 kts | 33° |
| 2026-05-05 15:20 | 37.61354 | -122.38254 | 26 ft | 4 kts | 86° |
| 2026-05-05 15:21 | 37.61355 | -122.38281 | 27 ft | 0 kts | 98° |
| 2026-05-05 15:25 | 37.61355 | -122.38275 | 18 ft | 2 kts | 97° |
| 2026-05-05 15:25 | 37.61349 | -122.38256 | 28 ft | 3 kts | 116° |
| 2026-05-05 15:25 | 37.61326 | -122.38237 | 28 ft | 7 kts | 149° |
| 2026-05-05 15:26 | 37.61270 | -122.38234 | 28 ft | 10 kts | 200° |
| 2026-05-05 15:26 | 37.61192 | -122.38282 | 28 ft | 15 kts | 207° |
| 2026-05-05 15:26 | 37.61094 | -122.38345 | 28 ft | 16 kts | 208° |
| 2026-05-05 15:26 | 37.60994 | -122.38421 | 28 ft | 17 kts | 216° |
| 2026-05-05 15:27 | 37.60932 | -122.38475 | 28 ft | 6 kts | 210° |
| 2026-05-05 15:27 | 37.60889 | -122.38468 | 28 ft | 7 kts | 155° |
| 2026-05-05 15:27 | 37.60859 | -122.38421 | 28 ft | 0 kts | 117° |
| 2026-05-05 15:27 | 37.60856 | -122.38413 | 28 ft | 2 kts | 117° |
| 2026-05-05 15:28 | 37.60845 | -122.38386 | 28 ft | 7 kts | 117° |
| 2026-05-05 15:28 | 37.60819 | -122.38284 | 28 ft | 9 kts | 74° |
| 2026-05-05 15:28 | 37.60833 | -122.38268 | 28 ft | 0 kts | 32° |
| 2026-05-05 15:29 | 37.61011 | -122.38147 | 28 ft | 73 kts | 27° |
| 2026-05-05 15:29 | 37.61719 | -122.37680 | 28 ft | 154 kts | 27° |
| 2026-05-05 15:29 | 37.62825 | -122.36953 | 433 ft | 185 kts | 26° |
| 2026-05-05 15:29 | 37.63882 | -122.36175 | 1730 ft | 170 kts | 29° |
| 2026-05-05 15:30 | 37.64822 | -122.35318 | 2748 ft | 171 kts | 38° |
| 2026-05-05 15:30 | 37.65660 | -122.34072 | 3225 ft | 204 kts | 53° |
| 2026-05-05 15:30 | 37.66474 | -122.32435 | 3740 ft | 232 kts | 58° |
| 2026-05-05 15:30 | 37.67298 | -122.30607 | 4458 ft | 244 kts | 58° |
| 2026-05-05 15:31 | 37.68143 | -122.28704 | 4907 ft | 256 kts | 59° |
| 2026-05-05 15:31 | 37.69039 | -122.26689 | 5000 ft | 267 kts | 59° |
| 2026-05-05 15:31 | 37.70012 | -122.24687 | 5018 ft | 267 kts | 54° |
| 2026-05-05 15:31 | 37.71056 | -122.22732 | 5355 ft | 270 kts | 53° |
| 2026-05-05 15:32 | 37.72302 | -122.20993 | 6149 ft | 264 kts | 38° |
| 2026-05-05 15:32 | 37.73754 | -122.19601 | 6982 ft | 261 kts | 34° |
| 2026-05-05 15:32 | 37.75216 | -122.18298 | 7723 ft | 260 kts | 34° |
| 2026-05-05 15:32 | 37.76700 | -122.16976 | 8473 ft | 261 kts | 34° |
| 2026-05-05 15:33 | 37.78182 | -122.15648 | 9245 ft | 261 kts | 34° |
| 2026-05-05 15:33 | 37.79663 | -122.14315 | 9995 ft | 262 kts | 34° |
| 2026-05-05 15:33 | 37.81173 | -122.12954 | 10466 ft | 273 kts | 34° |
| 2026-05-05 15:33 | 37.82769 | -122.11512 | 10752 ft | 291 kts | 34° |
| 2026-05-05 15:34 | 37.84463 | -122.09983 | 11031 ft | 307 kts | 34° |
| 2026-05-05 15:34 | 37.86248 | -122.08367 | 11317 ft | 323 kts | 34° |
| 2026-05-05 15:34 | 37.88119 | -122.06673 | 11590 ft | 338 kts | 35° |
| 2026-05-05 15:34 | 37.90073 | -122.04911 | 11907 ft | 350 kts | 35° |
| 2026-05-05 15:35 | 37.92067 | -122.03099 | 12444 ft | 354 kts | 35° |
| 2026-05-05 15:35 | 37.94051 | -122.01293 | 13031 ft | 357 kts | 35° |
| 2026-05-05 15:35 | 37.96079 | -121.99446 | 13648 ft | 360 kts | 35° |
| 2026-05-05 15:35 | 37.98121 | -121.97586 | 14159 ft | 364 kts | 35° |
| 2026-05-05 15:36 | 38.00189 | -121.95703 | 14698 ft | 367 kts | 34° |
| 2026-05-05 15:36 | 38.02273 | -121.93806 | 15248 ft | 371 kts | 34° |
| 2026-05-05 15:36 | 38.04378 | -121.91888 | 15828 ft | 374 kts | 34° |
| 2026-05-05 15:36 | 38.06503 | -121.89950 | 16374 ft | 377 kts | 34° |
| 2026-05-05 15:37 | 38.08646 | -121.87994 | 16902 ft | 381 kts | 34° |
| 2026-05-05 15:37 | 38.10804 | -121.86023 | 17439 ft | 384 kts | 34° |
| 2026-05-05 15:37 | 38.12977 | -121.84036 | 17987 ft | 387 kts | 34° |
| 2026-05-05 15:37 | 38.15173 | -121.82028 | 18505 ft | 390 kts | 34° |
| 2026-05-05 15:38 | 38.17386 | -121.80002 | 19015 ft | 392 kts | 34° |
| 2026-05-05 15:38 | 38.19571 | -121.78000 | 19579 ft | 392 kts | 35° |
| 2026-05-05 15:38 | 38.21788 | -121.75966 | 20119 ft | 394 kts | 35° |
| 2026-05-05 15:38 | 38.24014 | -121.73923 | 20665 ft | 395 kts | 35° |
| 2026-05-05 15:39 | 38.26250 | -121.71870 | 21225 ft | 397 kts | 35° |
| 2026-05-05 15:39 | 38.28492 | -121.69809 | 21784 ft | 398 kts | 35° |
| 2026-05-05 15:39 | 38.30745 | -121.67737 | 22331 ft | 400 kts | 36° |
| 2026-05-05 15:39 | 38.33011 | -121.65651 | 22873 ft | 402 kts | 36° |
| 2026-05-05 15:40 | 38.35285 | -121.63556 | 23402 ft | 404 kts | 36° |
| 2026-05-05 15:40 | 38.37543 | -121.61474 | 23897 ft | 406 kts | 36° |
| 2026-05-05 15:40 | 38.39838 | -121.59357 | 24354 ft | 408 kts | 36° |
| 2026-05-05 15:40 | 38.42138 | -121.57223 | 24801 ft | 410 kts | 37° |
| 2026-05-05 15:41 | 38.44321 | -121.54872 | 25232 ft | 412 kts | 44° |
| 2026-05-05 15:41 | 38.46259 | -121.52157 | 25688 ft | 414 kts | 49° |
| 2026-05-05 15:41 | 38.48092 | -121.49301 | 26122 ft | 417 kts | 50° |
| 2026-05-05 15:41 | 38.49882 | -121.46374 | 26553 ft | 419 kts | 51° |
| 2026-05-05 15:42 | 38.51659 | -121.43411 | 26984 ft | 421 kts | 51° |
| 2026-05-05 15:42 | 38.53441 | -121.40430 | 27421 ft | 423 kts | 51° |
| 2026-05-05 15:42 | 38.55232 | -121.37447 | 27860 ft | 424 kts | 51° |
| 2026-05-05 15:42 | 38.57032 | -121.34462 | 28344 ft | 424 kts | 51° |
| 2026-05-05 15:43 | 38.58824 | -121.31505 | 28748 ft | 426 kts | 51° |
| 2026-05-05 15:43 | 38.60646 | -121.28505 | 29142 ft | 428 kts | 51° |
| 2026-05-05 15:43 | 38.62474 | -121.25497 | 29503 ft | 430 kts | 51° |
| 2026-05-05 15:43 | 38.64314 | -121.22469 | 29882 ft | 432 kts | 51° |
| 2026-05-05 15:44 | 38.66165 | -121.19422 | 30207 ft | 433 kts | 51° |
| 2026-05-05 15:44 | 38.68004 | -121.16388 | 30658 ft | 430 kts | 51° |
| 2026-05-05 15:44 | 38.69833 | -121.13366 | 31160 ft | 426 kts | 51° |
| 2026-05-05 15:44 | 38.71639 | -121.10379 | 31647 ft | 422 kts | 51° |
| 2026-05-05 15:45 | 38.73436 | -121.07406 | 32093 ft | 419 kts | 51° |
| 2026-05-05 15:45 | 38.75214 | -121.04460 | 32513 ft | 417 kts | 52° |
| 2026-05-05 15:45 | 38.76979 | -121.01532 | 32929 ft | 414 kts | 51° |
| 2026-05-05 15:45 | 38.78732 | -120.98625 | 33323 ft | 411 kts | 52° |
| 2026-05-05 15:46 | 38.80459 | -120.95759 | 33700 ft | 409 kts | 52° |
| 2026-05-05 15:46 | 38.82193 | -120.92878 | 34054 ft | 407 kts | 52° |
| 2026-05-05 15:46 | 38.83922 | -120.89999 | 34297 ft | 406 kts | 52° |
| 2026-05-05 15:46 | 38.85650 | -120.87120 | 34426 ft | 408 kts | 52° |
| 2026-05-05 15:47 | 38.87389 | -120.84222 | 34570 ft | 410 kts | 52° |
| 2026-05-05 15:47 | 38.88540 | -120.82303 | 34676 ft | 410 kts | 52° |
| 2026-05-05 15:47 | 38.90866 | -120.78420 | 34908 ft | 411 kts | 52° |
| 2026-05-05 15:47 | 38.92611 | -120.75505 | 35019 ft | 412 kts | 52° |
| 2026-05-05 15:48 | 38.94366 | -120.72570 | 35039 ft | 416 kts | 52° |
| 2026-05-05 15:48 | 38.97933 | -120.66593 | 35037 ft | 424 kts | 52° |
| 2026-05-05 15:49 | 39.01522 | -120.60562 | 35027 ft | 430 kts | 52° |
| 2026-05-05 15:49 | 39.05172 | -120.54433 | 35023 ft | 432 kts | 52° |
| 2026-05-05 15:50 | 39.08821 | -120.48287 | 35011 ft | 432 kts | 52° |
| 2026-05-05 15:50 | 39.12470 | -120.42128 | 35013 ft | 432 kts | 52° |
| 2026-05-05 15:51 | 39.16115 | -120.35965 | 35005 ft | 433 kts | 52° |
| 2026-05-05 15:51 | 39.19765 | -120.29783 | 35011 ft | 433 kts | 52° |
| 2026-05-05 15:52 | 39.23417 | -120.23579 | 35021 ft | 434 kts | 52° |
| 2026-05-05 15:52 | 39.27040 | -120.17415 | 35032 ft | 434 kts | 52° |
| 2026-05-05 15:53 | 39.30681 | -120.11209 | 35033 ft | 433 kts | 52° |
| 2026-05-05 15:53 | 39.34316 | -120.05004 | 35026 ft | 433 kts | 52° |
| 2026-05-05 15:54 | 39.37940 | -119.98803 | 34964 ft | 432 kts | 52° |
| 2026-05-05 15:54 | 39.41560 | -119.92596 | 34980 ft | 432 kts | 52° |
| 2026-05-05 15:55 | 39.45162 | -119.86411 | 34990 ft | 432 kts | 52° |
| 2026-05-05 15:55 | 39.48773 | -119.80195 | 34989 ft | 432 kts | 52° |
| 2026-05-05 15:56 | 39.52386 | -119.73967 | 34990 ft | 432 kts | 52° |
| 2026-05-05 15:56 | 39.55383 | -119.68789 | 34991 ft | 432 kts | 52° |
| 2026-05-05 15:57 | 39.58990 | -119.62549 | 34976 ft | 432 kts | 52° |
| 2026-05-05 15:57 | 39.62594 | -119.56300 | 34956 ft | 432 kts | 52° |
| 2026-05-05 15:58 | 39.66197 | -119.50039 | 34923 ft | 433 kts | 52° |
| 2026-05-05 15:58 | 39.69802 | -119.43765 | 34917 ft | 434 kts | 52° |
| 2026-05-05 15:59 | 39.73399 | -119.37490 | 34899 ft | 433 kts | 52° |
| 2026-05-05 15:59 | 39.76993 | -119.31208 | 34893 ft | 432 kts | 52° |
| 2026-05-05 16:00 | 39.80558 | -119.24967 | 34892 ft | 432 kts | 52° |
| 2026-05-05 16:00 | 39.84141 | -119.18679 | 34898 ft | 433 kts | 52° |
| 2026-05-05 16:01 | 39.87725 | -119.12379 | 34893 ft | 433 kts | 52° |
| 2026-05-05 16:01 | 39.91256 | -119.06030 | 34889 ft | 433 kts | 54° |
| 2026-05-05 16:02 | 39.94554 | -118.99433 | 34891 ft | 433 kts | 56° |
| 2026-05-05 16:02 | 39.97780 | -118.92858 | 34913 ft | 434 kts | 56° |
| 2026-05-05 16:03 | 40.00935 | -118.86115 | 34927 ft | 436 kts | 59° |
| 2026-05-05 16:03 | 40.03818 | -118.79142 | 34953 ft | 436 kts | 59° |
| 2026-05-05 16:04 | 40.06699 | -118.72159 | 34970 ft | 436 kts | 59° |
| 2026-05-05 16:04 | 40.09605 | -118.65253 | 34895 ft | 436 kts | 59° |
| 2026-05-05 16:05 | 40.12556 | -118.58298 | 34897 ft | 438 kts | 59° |
| 2026-05-05 16:05 | 40.15507 | -118.51334 | 34883 ft | 437 kts | 58° |
| 2026-05-05 16:06 | 40.18444 | -118.44381 | 34887 ft | 436 kts | 58° |
| 2026-05-05 16:06 | 40.21355 | -118.37475 | 34887 ft | 436 kts | 59° |
| 2026-05-05 16:07 | 40.24284 | -118.30508 | 34885 ft | 437 kts | 58° |
| 2026-05-05 16:07 | 40.27222 | -118.23506 | 34889 ft | 439 kts | 59° |
| 2026-05-05 16:08 | 40.30158 | -118.16490 | 34887 ft | 438 kts | 59° |
| 2026-05-05 16:08 | 40.32556 | -118.09122 | 34887 ft | 443 kts | 68° |
| 2026-05-05 16:09 | 40.34304 | -118.01409 | 34881 ft | 445 kts | 70° |
| 2026-05-05 16:09 | 40.35957 | -117.93560 | 34882 ft | 446 kts | 70° |
| 2026-05-05 16:10 | 40.37597 | -117.85703 | 34880 ft | 446 kts | 70° |
| 2026-05-05 16:10 | 40.39244 | -117.77857 | 34880 ft | 446 kts | 70° |
| 2026-05-05 16:11 | 40.40883 | -117.70061 | 34875 ft | 446 kts | 70° |
| 2026-05-05 16:12 | 40.44170 | -117.54344 | 34875 ft | 446 kts | 70° |
| 2026-05-05 16:13 | 40.48255 | -117.34635 | 34867 ft | 448 kts | 70° |
| 2026-05-05 16:13 | 40.49874 | -117.26774 | 34867 ft | 448 kts | 70° |
| 2026-05-05 16:14 | 40.53116 | -117.10940 | 34923 ft | 449 kts | 71° |
| 2026-05-05 16:15 | 40.56344 | -116.95049 | 34966 ft | 450 kts | 71° |
| 2026-05-05 16:16 | 40.60230 | -116.79512 | 34967 ft | 448 kts | 65° |
| 2026-05-05 16:17 | 40.63527 | -116.67959 | 34938 ft | 449 kts | 66° |
| 2026-05-05 16:18 | 40.66692 | -116.56348 | 34904 ft | 449 kts | 66° |
| 2026-05-05 16:19 | 40.69833 | -116.44669 | 34866 ft | 452 kts | 66° |
| 2026-05-05 16:19 | 40.72965 | -116.32991 | 34858 ft | 452 kts | 66° |
| 2026-05-05 16:20 | 40.77145 | -116.17334 | 34858 ft | 453 kts | 67° |
| 2026-05-05 16:22 | 40.82354 | -115.97670 | 34934 ft | 454 kts | 67° |
| 2026-05-05 16:23 | 40.86498 | -115.81917 | 34953 ft | 456 kts | 67° |
| 2026-05-05 16:23 | 40.89605 | -115.70041 | 34952 ft | 455 kts | 67° |
| 2026-05-05 16:24 | 40.91670 | -115.62115 | 34928 ft | 456 kts | 67° |
| 2026-05-05 16:25 | 40.94753 | -115.50238 | 34883 ft | 457 kts | 67° |
| 2026-05-05 16:25 | 40.97838 | -115.38286 | 34844 ft | 457 kts | 67° |
| 2026-05-05 16:26 | 41.01933 | -115.22339 | 34834 ft | 459 kts | 67° |
| 2026-05-05 16:27 | 41.03982 | -115.14319 | 34836 ft | 460 kts | 67° |
| 2026-05-05 16:27 | 41.06029 | -115.06271 | 34834 ft | 460 kts | 67° |
| 2026-05-05 16:28 | 41.08067 | -114.98243 | 34832 ft | 459 kts | 67° |
| 2026-05-05 16:28 | 41.10093 | -114.90229 | 34830 ft | 458 kts | 67° |
| 2026-05-05 16:29 | 41.12097 | -114.82279 | 34829 ft | 457 kts | 67° |
| 2026-05-05 16:29 | 41.14108 | -114.74273 | 34824 ft | 457 kts | 67° |
| 2026-05-05 16:30 | 41.16116 | -114.66258 | 34826 ft | 457 kts | 67° |
| 2026-05-05 16:30 | 41.18119 | -114.58232 | 34817 ft | 457 kts | 67° |
| 2026-05-05 16:31 | 41.20113 | -114.50211 | 34807 ft | 457 kts | 67° |
| 2026-05-05 16:31 | 41.22101 | -114.42188 | 34806 ft | 457 kts | 67° |
| 2026-05-05 16:32 | 41.24083 | -114.34161 | 34796 ft | 458 kts | 67° |
| 2026-05-05 16:32 | 41.26056 | -114.26146 | 34793 ft | 459 kts | 67° |
| 2026-05-05 16:33 | 41.28033 | -114.18085 | 34782 ft | 459 kts | 67° |
| 2026-05-05 16:33 | 41.30007 | -114.10011 | 34774 ft | 459 kts | 67° |
| 2026-05-05 16:34 | 41.31975 | -114.01935 | 34776 ft | 460 kts | 67° |
| 2026-05-05 16:34 | 41.33945 | -113.93823 | 34770 ft | 461 kts | 67° |
| 2026-05-05 16:35 | 41.35841 | -113.85666 | 34767 ft | 464 kts | 71° |
| 2026-05-05 16:35 | 41.36793 | -113.77118 | 34770 ft | 469 kts | 78° |
| 2026-05-05 16:36 | 41.37400 | -113.68499 | 34765 ft | 472 kts | 79° |
| 2026-05-05 16:36 | 41.37952 | -113.59773 | 34766 ft | 473 kts | 79° |
| 2026-05-05 16:37 | 41.38508 | -113.51035 | 34765 ft | 473 kts | 79° |
| 2026-05-05 16:37 | 41.39071 | -113.42292 | 34775 ft | 473 kts | 79° |
| 2026-05-05 16:38 | 41.39634 | -113.33529 | 34766 ft | 475 kts | 79° |
| 2026-05-05 16:38 | 41.40193 | -113.24747 | 34765 ft | 476 kts | 79° |
| 2026-05-05 16:39 | 41.40744 | -113.15961 | 34765 ft | 476 kts | 79° |
| 2026-05-05 16:39 | 41.41288 | -113.07156 | 34764 ft | 477 kts | 80° |
| 2026-05-05 16:40 | 41.41824 | -112.98378 | 34766 ft | 479 kts | 80° |
| 2026-05-05 16:40 | 41.42358 | -112.89517 | 34765 ft | 480 kts | 80° |
| 2026-05-05 16:41 | 41.42884 | -112.80656 | 34766 ft | 479 kts | 80° |
| 2026-05-05 16:41 | 41.43406 | -112.71775 | 34766 ft | 482 kts | 80° |
| 2026-05-05 16:42 | 41.43926 | -112.62832 | 34771 ft | 484 kts | 80° |
| 2026-05-05 16:42 | 41.44437 | -112.53881 | 34774 ft | 484 kts | 80° |
| 2026-05-05 16:43 | 41.44938 | -112.44993 | 34784 ft | 484 kts | 80° |
| 2026-05-05 16:43 | 41.45441 | -112.35998 | 34780 ft | 488 kts | 80° |
| 2026-05-05 16:44 | 41.45936 | -112.26949 | 34800 ft | 489 kts | 80° |
| 2026-05-05 16:44 | 41.46423 | -112.17908 | 34814 ft | 489 kts | 80° |
| 2026-05-05 16:45 | 41.46901 | -112.08928 | 34826 ft | 490 kts | 81° |
| 2026-05-05 16:45 | 41.47380 | -111.99823 | 34831 ft | 493 kts | 81° |
| 2026-05-05 16:46 | 41.47776 | -111.92175 | 34838 ft | 494 kts | 81° |
| 2026-05-05 16:46 | 41.48241 | -111.83032 | 34829 ft | 494 kts | 81° |
| 2026-05-05 16:47 | 41.48701 | -111.73858 | 34872 ft | 497 kts | 82° |
| 2026-05-05 16:47 | 41.49157 | -111.64631 | 34850 ft | 499 kts | 82° |
| 2026-05-05 16:48 | 41.49603 | -111.55438 | 34832 ft | 499 kts | 82° |
| 2026-05-05 16:48 | 41.49899 | -111.49247 | 34845 ft | 499 kts | 82° |